Greenfield, CA (93927)

7:26 AM PDT on August 24, 2016 (GMT -0700)
Greenfield CA | | Change Station

Elev 285 ft 36.33 °N, 121.28 °W | Updated 5 minutes ago

Overcast
Overcast
58.8 °F
Feels Like 58.8 °F
N
1.1
Wind Variable Wind from WNW
Gusts 2.5 mph

Today
High -- | Low -- °F
--% Chance of Precip.
Yesterday
High -- | Low -- °F
Precip. -- in
Pressure 30.12 in
Visibility 9.0 miles
Clouds Overcast 900 ft
Dew Point 59 °F
Humidity 99%
Rainfall 0.00 in
Snow Depth Not available.
6:30 AM 7:43 PM
Waning Gibbous, 56% visible
METAR KSNS 241353Z 00000KT 9SM OVC009 14/12 A3010 RMK AO2 SLP200 T01440117
Pressure 30.12 in
Visibility 9.0 miles
Clouds Overcast 900 ft
Dew Point 59 °F
Humidity 99%
Rainfall 0.00 in
Snow Depth Not available.
6:30 AM 7:43 PM
Waning Gibbous, 56% visible
METAR KSNS 241353Z 00000KT 9SM OVC009 14/12 A3010 RMK AO2 SLP200 T01440117

10-Day Weather Forecast

Almanac

Astronomy

Aug. 24, 2016 Rise Set
Actual Time
Civil Twilight
Nautical Twilight
Astronomical Twilight
Moon
Length of Visible Light
Length of Day
Tomorrow will be .
, % of the Moon is Illuminated

Today's Extremes

State Highs State Lows

Community

WunderPhotos

Upload Photos

1,934,606 photos uploaded!

WunderBlog® & News

Nearby

Air Quality

  Air Quality AQ Index Pollutant
Not available.

Snow Depth

Station Depth Elevation

Earthquake Activity

City Distance Mag. Time & Date
Minimum magnitude displayed is 2.5.

Coastal Water Temperatures

Place Temperature

Stations

Nearby Weather Stations

Station Location Temp. Windchill Dew Point Humidity Wind Precip. Elev Updated Type
                   

Watches & Warnings

There are currently no watches in effect.